createdAt,value
2022-10-26T00:01:15.706Z,6.13
2022-10-26T00:03:46.829Z,5.90
2022-10-26T00:06:16.767Z,5.43
2022-10-26T00:08:45.460Z,5.60
2022-10-26T00:11:14.425Z,5.40
2022-10-26T00:13:43.347Z,5.87
2022-10-26T00:16:13.556Z,5.87
2022-10-26T00:18:42.121Z,5.63
2022-10-26T00:21:12.900Z,5.90
2022-10-26T00:23:41.330Z,6.53
2022-10-26T00:26:10.150Z,5.37
2022-10-26T00:28:38.513Z,5.17
2022-10-26T00:31:08.592Z,5.83
2022-10-26T00:33:37.333Z,5.13
2022-10-26T00:36:05.804Z,6.07
2022-10-26T00:38:35.403Z,5.10
2022-10-26T00:41:03.742Z,5.43
2022-10-26T00:43:40.133Z,6.07
2022-10-26T00:46:13.189Z,5.43
2022-10-26T00:48:45.714Z,5.43
2022-10-26T00:51:19.865Z,5.57
2022-10-26T00:53:50.177Z,5.07
2022-10-26T00:56:19.534Z,4.77
2022-10-26T00:58:48.738Z,5.20
2022-10-26T01:01:17.132Z,5.57
2022-10-26T01:03:46.676Z,5.53
2022-10-26T01:06:16.036Z,5.37
2022-10-26T01:08:45.139Z,5.37
2022-10-26T01:11:15.218Z,5.07
2022-10-26T01:13:45.022Z,5.17
2022-10-26T01:16:30.990Z,4.90
2022-10-26T01:19:14.617Z,5.47
2022-10-26T01:21:49.976Z,5.40
2022-10-26T01:24:33.041Z,4.97
2022-10-26T01:27:18.799Z,4.57
2022-10-26T01:33:17.589Z,5.20
2022-10-26T01:35:54.097Z,5.20
2022-10-26T01:38:29.921Z,4.53
2022-10-26T01:41:03.769Z,5.90
2022-10-26T01:43:36.946Z,5.27
2022-10-26T01:46:07.138Z,5.17
2022-10-26T01:48:39.395Z,4.80
2022-10-26T01:51:08.704Z,5.43
2022-10-26T01:53:36.898Z,5.17
2022-10-26T01:56:05.402Z,5.03
2022-10-26T01:58:58.061Z,5.10
2022-10-26T02:01:46.157Z,5.27
2022-10-26T02:04:30.255Z,4.60
2022-10-26T02:07:04.177Z,4.93
2022-10-26T02:09:40.672Z,5.00
2022-10-26T02:12:15.384Z,4.83
2022-10-26T02:14:50.259Z,4.87
2022-10-26T02:17:22.566Z,5.27
2022-10-26T02:19:56.334Z,5.17
2022-10-26T02:22:28.409Z,4.17
2022-10-26T02:24:57.757Z,4.70
2022-10-26T02:27:29.808Z,5.67
2022-10-26T02:30:00.576Z,4.93
2022-10-26T02:32:33.315Z,5.20
2022-10-26T02:35:04.037Z,5.17
2022-10-26T02:37:36.527Z,5.13
2022-10-26T02:40:10.475Z,4.80
2022-10-26T02:42:41.003Z,4.80
2022-10-26T02:45:13.477Z,5.30
2022-10-26T02:47:41.819Z,4.80
2022-10-26T02:50:12.116Z,5.13
2022-10-26T02:52:49.157Z,5.17
2022-10-26T02:55:21.843Z,5.43
2022-10-26T02:57:53.974Z,5.60
2022-10-26T03:00:22.479Z,5.60
2022-10-26T03:02:55.255Z,5.53
2022-10-26T03:05:27.364Z,4.83
2022-10-26T03:07:56.766Z,5.03
2022-10-26T03:10:25.894Z,5.50
2022-10-26T03:12:54.125Z,5.60
2022-10-26T03:15:22.730Z,5.67
2022-10-26T03:17:51.179Z,5.67
2022-10-26T03:20:19.654Z,6.07
2022-10-26T03:22:50.282Z,4.87
2022-10-26T03:25:18.722Z,6.10
2022-10-26T03:27:47.256Z,5.87
2022-10-26T03:30:15.674Z,5.93
2022-10-26T03:32:43.912Z,5.43
2022-10-26T03:35:12.267Z,6.37
2022-10-26T03:37:40.501Z,6.17
2022-10-26T03:40:11.792Z,5.47
2022-10-26T03:42:40.720Z,5.33
2022-10-26T03:45:10.307Z,6.63
2022-10-26T03:47:45.234Z,5.47
2022-10-26T03:50:14.674Z,6.63
2022-10-26T03:52:42.922Z,6.23
2022-10-26T03:55:12.544Z,6.07
2022-10-26T03:57:43.016Z,6.47
2022-10-26T04:00:15.475Z,6.67
2022-10-26T04:02:46.926Z,6.07
2022-10-26T04:05:16.804Z,6.03
2022-10-26T04:07:45.552Z,5.50
2022-10-26T04:10:15.243Z,5.50
2022-10-26T04:12:43.519Z,6.23
2022-10-26T04:15:12.091Z,6.77
2022-10-26T04:17:40.303Z,7.10
2022-10-26T04:20:10.270Z,9.47
2022-10-26T04:22:38.733Z,6.50
2022-10-26T04:25:08.142Z,5.90
2022-10-26T04:27:37.930Z,5.37
2022-10-26T04:30:10.031Z,7.93
2022-10-26T04:32:38.318Z,7.27
2022-10-26T04:35:08.032Z,6.00
2022-10-26T04:37:37.438Z,7.00
2022-10-26T04:42:44.762Z,10.00
2022-10-26T04:45:14.375Z,5.73
2022-10-26T04:47:43.487Z,5.97
2022-10-26T04:50:13.001Z,5.80
2022-10-26T04:52:41.633Z,5.53
2022-10-26T04:55:10.155Z,5.27
2022-10-26T04:57:38.457Z,5.83
2022-10-26T05:00:09.297Z,4.50
2022-10-26T05:02:37.521Z,4.63
2022-10-26T05:05:08.791Z,4.83
2022-10-26T05:07:39.594Z,4.67
2022-10-26T05:10:08.946Z,4.70
2022-10-26T05:12:37.597Z,4.23
2022-10-26T05:15:08.778Z,4.20
2022-10-26T05:17:37.159Z,5.20
2022-10-26T05:20:06.427Z,4.23
2022-10-26T05:22:34.650Z,4.27
2022-10-26T05:25:02.899Z,3.70
2022-10-26T05:27:31.106Z,4.53
2022-10-26T05:29:59.372Z,5.03
2022-10-26T05:32:29.159Z,4.20
2022-10-26T05:34:57.396Z,4.43
2022-10-26T05:37:25.638Z,4.47
2022-10-26T05:39:53.842Z,4.90
2022-10-26T05:42:22.045Z,5.03
2022-10-26T05:44:50.657Z,4.60
2022-10-26T05:47:18.890Z,5.07
2022-10-26T05:49:49.060Z,4.60
2022-10-26T05:52:17.251Z,5.27
2022-10-26T05:54:45.481Z,5.33
2022-10-26T05:57:14.589Z,5.30
2022-10-26T05:59:43.438Z,6.40
2022-10-26T06:02:22.031Z,7.73
2022-10-26T06:04:52.281Z,11.83
2022-10-26T06:07:21.618Z,6.87
2022-10-26T06:09:50.560Z,6.57
2022-10-26T06:12:20.042Z,6.63
2022-10-26T06:14:49.063Z,6.27
2022-10-26T06:17:30.612Z,5.53
2022-10-26T06:20:17.462Z,7.77
2022-10-26T06:22:59.366Z,5.13
2022-10-26T06:25:38.478Z,5.20
2022-10-26T06:28:18.380Z,4.83
2022-10-26T06:30:46.749Z,6.07
2022-10-26T06:33:28.901Z,21.10
2022-10-26T06:36:11.898Z,6.50
2022-10-26T06:38:45.449Z,7.63
2022-10-26T06:41:16.445Z,7.10
2022-10-26T06:43:45.251Z,6.63
2022-10-26T06:46:23.751Z,7.93
2022-10-26T06:48:58.013Z,7.67
2022-10-26T06:51:31.069Z,6.47
2022-10-26T06:54:05.349Z,6.47
2022-10-26T06:56:34.249Z,5.43
2022-10-26T06:59:09.431Z,6.27
2022-10-26T07:01:37.775Z,5.37
2022-10-26T07:04:06.271Z,6.27
2022-10-26T07:06:38.423Z,6.07
2022-10-26T07:09:07.814Z,6.30
2022-10-26T07:11:36.081Z,7.40
2022-10-26T07:14:04.286Z,6.43
2022-10-26T07:16:32.517Z,5.27
2022-10-26T07:19:05.667Z,5.60
2022-10-26T07:21:35.352Z,5.83
2022-10-26T07:24:03.689Z,6.10
2022-10-26T07:26:31.925Z,6.40
2022-10-26T07:29:00.150Z,6.80
2022-10-26T07:31:28.735Z,5.47
2022-10-26T07:33:57.043Z,6.07
2022-10-26T07:36:25.377Z,6.20
2022-10-26T07:38:55.542Z,5.57
2022-10-26T07:41:23.877Z,5.53
2022-10-26T07:43:52.146Z,5.37
2022-10-26T07:46:20.392Z,6.13
2022-10-26T07:48:48.694Z,5.07
2022-10-26T07:51:17.334Z,5.67
2022-10-26T07:53:45.567Z,7.17
2022-10-26T07:56:15.575Z,9.10
2022-10-26T07:58:43.797Z,8.97
2022-10-26T08:01:14.279Z,7.33
2022-10-26T08:03:42.926Z,9.67
2022-10-26T08:06:11.215Z,7.50
2022-10-26T08:08:43.516Z,9.20
2022-10-26T08:11:16.582Z,7.67
2022-10-26T08:13:44.908Z,7.90
2022-10-26T08:16:13.578Z,7.30
2022-10-26T08:18:41.858Z,8.00
2022-10-26T08:21:15.547Z,7.30
2022-10-26T08:23:49.916Z,8.93
2022-10-26T08:26:20.375Z,6.73
2022-10-26T08:28:50.835Z,6.90
2022-10-26T08:31:19.055Z,6.80
2022-10-26T08:33:47.337Z,6.33
2022-10-26T08:36:20.027Z,5.97
2022-10-26T08:38:49.101Z,5.93
2022-10-26T08:41:17.717Z,5.47
2022-10-26T08:43:53.445Z,6.53
2022-10-26T08:46:26.615Z,7.17
2022-10-26T08:48:57.410Z,7.37
2022-10-26T08:51:30.680Z,8.10
2022-10-26T08:54:01.995Z,8.65
2022-10-26T08:56:36.808Z,8.65
2022-10-26T08:59:13.544Z,8.67
2022-10-26T09:01:41.956Z,8.90
2022-10-26T09:04:14.050Z,7.43
2022-10-26T09:06:55.201Z,7.28
2022-10-26T09:09:30.254Z,7.35
2022-10-26T09:12:09.096Z,6.32
2022-10-26T09:14:50.520Z,5.80
2022-10-26T09:17:29.076Z,5.38
2022-10-26T09:20:10.490Z,6.10
2022-10-26T09:22:45.126Z,5.57
2022-10-26T09:25:19.951Z,6.05
2022-10-26T09:27:51.982Z,6.05
2022-10-26T09:30:23.154Z,5.57
2022-10-26T09:32:54.638Z,6.00
2022-10-26T09:35:25.517Z,6.50
2022-10-26T09:37:59.625Z,7.22
2022-10-26T09:40:34.171Z,6.22
2022-10-26T09:43:08.574Z,5.63
2022-10-26T09:45:41.755Z,5.43
2022-10-26T09:48:17.698Z,5.32
2022-10-26T09:50:48.674Z,5.25
2022-10-26T09:53:17.058Z,4.88
2022-10-26T09:55:48.144Z,4.95
2022-10-26T09:58:20.136Z,5.00
2022-10-26T10:00:49.833Z,5.15
2022-10-26T10:03:22.702Z,4.97
2022-10-26T10:05:52.418Z,5.30
2022-10-26T10:08:23.370Z,4.65
2022-10-26T10:11:03.493Z,5.78
2022-10-26T10:13:33.412Z,6.13
2022-10-26T10:16:08.013Z,5.68
2022-10-26T10:18:38.550Z,4.88
2022-10-26T10:21:08.340Z,5.25
2022-10-26T10:23:37.948Z,4.88
2022-10-26T10:26:08.898Z,4.50
2022-10-26T10:28:37.672Z,4.95
2022-10-26T10:31:21.086Z,6.57
2022-10-26T10:33:49.898Z,4.95
2022-10-26T10:36:21.227Z,4.32
2022-10-26T10:38:51.370Z,5.50
2022-10-26T10:41:27.842Z,4.10
2022-10-26T10:44:00.366Z,4.63
2022-10-26T10:46:30.436Z,3.42
2022-10-26T10:49:04.996Z,4.85
2022-10-26T10:51:39.822Z,3.25
2022-10-26T10:54:18.175Z,3.35
2022-10-26T10:56:52.217Z,3.63
2022-10-26T10:59:44.345Z,3.53
2022-10-26T11:02:44.886Z,3.13
2022-10-26T11:05:27.376Z,2.55
2022-10-26T11:08:02.518Z,2.25
2022-10-26T11:10:38.170Z,2.78
2022-10-26T11:13:15.414Z,3.13
2022-10-26T11:15:45.795Z,3.00
2022-10-26T11:18:21.081Z,2.85
2022-10-26T11:20:54.449Z,2.45
2022-10-26T11:23:26.014Z,2.42
2022-10-26T11:25:59.249Z,2.28
2022-10-26T11:28:38.737Z,2.45
2022-10-26T11:31:12.282Z,2.50
2022-10-26T11:33:46.113Z,2.60
2022-10-26T11:36:21.156Z,2.25
2022-10-26T11:38:57.154Z,2.13
2022-10-26T11:41:31.149Z,2.58
2022-10-26T11:44:07.231Z,2.00
2022-10-26T11:46:41.298Z,2.00
2022-10-26T11:49:16.886Z,2.30
2022-10-26T11:51:51.708Z,1.98
2022-10-26T11:54:25.610Z,3.05
2022-10-26T11:56:56.010Z,2.53
2022-10-26T11:59:30.686Z,2.10
2022-10-26T12:02:06.497Z,2.15
2022-10-26T12:04:39.052Z,1.98
2022-10-26T12:07:14.787Z,2.38
2022-10-26T12:09:45.244Z,1.90
2022-10-26T12:12:20.256Z,2.72
2022-10-26T12:14:55.045Z,2.95
2022-10-26T12:17:32.195Z,2.13
2022-10-26T12:20:13.475Z,1.92
2022-10-26T12:22:43.782Z,2.92
2022-10-26T12:25:21.817Z,2.50
2022-10-26T12:27:56.156Z,2.40
2022-10-26T12:30:28.073Z,2.30
2022-10-26T12:32:58.209Z,2.22
2022-10-26T12:35:37.135Z,2.05
2022-10-26T12:46:08.786Z,1.70
2022-10-26T12:48:42.886Z,2.72
2022-10-26T12:51:44.041Z,2.10
2022-10-26T12:54:25.519Z,2.17
2022-10-26T12:56:58.935Z,1.67
2022-10-26T12:59:36.490Z,1.58
2022-10-26T13:02:32.094Z,2.05
2022-10-26T13:05:26.155Z,2.05
2022-10-26T13:08:04.552Z,2.15
2022-10-26T13:10:32.745Z,1.95
2022-10-26T13:13:02.979Z,2.40
2022-10-26T13:15:35.331Z,2.35
2022-10-26T13:18:10.487Z,1.73
2022-10-26T13:20:53.210Z,2.30
2022-10-26T13:23:27.792Z,2.45
2022-10-26T13:26:12.127Z,1.80
2022-10-26T13:28:48.525Z,1.70
2022-10-26T13:31:54.709Z,2.78
2022-10-26T13:34:25.395Z,2.00
2022-10-26T13:37:00.476Z,2.20
2022-10-26T13:39:34.146Z,2.00
2022-10-26T13:42:03.180Z,2.03
2022-10-26T13:44:40.030Z,2.40
2022-10-26T13:47:13.585Z,1.90
2022-10-26T13:49:44.369Z,2.17
2022-10-26T13:52:18.106Z,2.65
2022-10-26T13:54:51.497Z,2.25
2022-10-26T13:57:24.005Z,2.28
2022-10-26T13:59:53.834Z,2.55
2022-10-26T14:02:26.325Z,2.50
2022-10-26T14:04:55.930Z,3.00
2022-10-26T14:07:27.065Z,2.85
2022-10-26T14:09:58.515Z,2.17
2022-10-26T14:12:29.432Z,2.38
2022-10-26T14:15:03.996Z,2.35
2022-10-26T14:17:32.212Z,2.55
2022-10-26T14:20:00.747Z,3.67
2022-10-26T14:22:30.872Z,3.67
2022-10-26T14:25:02.037Z,6.40
2022-10-26T14:27:34.954Z,3.88
2022-10-26T14:30:21.981Z,2.50
2022-10-26T14:32:51.558Z,2.28
2022-10-26T14:35:22.896Z,2.50
2022-10-26T14:37:55.091Z,2.75
2022-10-26T14:40:27.492Z,2.42
2022-10-26T14:42:57.731Z,2.60
2022-10-26T14:45:47.678Z,2.30
2022-10-26T14:48:23.892Z,2.47
2022-10-26T14:51:04.251Z,2.00
2022-10-26T14:53:36.891Z,2.35
2022-10-26T14:56:17.750Z,2.15
2022-10-26T14:58:46.097Z,2.38
2022-10-26T15:01:26.456Z,2.53
2022-10-26T15:03:58.340Z,3.30
2022-10-26T15:06:32.752Z,3.15
2022-10-26T15:09:04.255Z,2.60
2022-10-26T15:11:35.693Z,2.53
2022-10-26T15:14:04.341Z,2.55
2022-10-26T15:16:36.081Z,3.10
2022-10-26T15:19:10.919Z,3.00
2022-10-26T15:21:41.583Z,2.83
2022-10-26T15:24:37.513Z,2.05
2022-10-26T15:27:15.363Z,2.08
2022-10-26T15:29:45.103Z,2.80
2022-10-26T15:32:31.314Z,2.17
2022-10-26T15:35:26.499Z,2.53
2022-10-26T15:37:56.381Z,2.35
2022-10-26T15:43:02.738Z,2.28
2022-10-26T15:45:35.127Z,2.80
2022-10-26T15:48:19.422Z,2.30
2022-10-26T15:50:47.552Z,2.30
2022-10-26T15:53:21.254Z,2.80
2022-10-26T15:55:50.172Z,2.22
2022-10-26T15:58:20.052Z,3.05
2022-10-26T16:00:48.459Z,2.88
2022-10-26T16:03:20.043Z,3.78
2022-10-26T16:05:48.524Z,3.47
2022-10-26T16:08:19.165Z,5.38
2022-10-26T16:10:48.613Z,6.50
2022-10-26T16:13:17.311Z,5.63
2022-10-26T16:15:47.288Z,7.20
2022-10-26T16:18:16.187Z,5.35
2022-10-26T16:20:46.949Z,4.10
2022-10-26T16:23:15.544Z,4.10
2022-10-26T16:25:46.052Z,4.22
2022-10-26T16:28:17.171Z,3.78
2022-10-26T16:30:46.877Z,4.72
2022-10-26T16:33:15.566Z,3.95
2022-10-26T16:35:43.769Z,3.17
2022-10-26T16:38:11.872Z,6.03
2022-10-26T16:40:42.744Z,3.72
2022-10-26T16:43:10.941Z,4.30
2022-10-26T16:45:40.944Z,3.50
2022-10-26T16:48:15.315Z,3.42
2022-10-26T16:50:43.657Z,2.90
2022-10-26T16:53:11.783Z,3.92
2022-10-26T16:55:39.962Z,4.70
2022-10-26T16:58:08.233Z,4.70
2022-10-26T17:00:36.912Z,4.63
2022-10-26T17:03:05.884Z,5.18
2022-10-26T17:05:35.387Z,3.97
2022-10-26T17:08:03.467Z,4.43
2022-10-26T17:10:31.603Z,3.92
2022-10-26T17:12:59.717Z,4.15
2022-10-26T17:15:29.093Z,4.90
2022-10-26T17:17:57.398Z,6.55
2022-10-26T17:20:25.600Z,6.45
2022-10-26T17:22:57.423Z,6.65
2022-10-26T17:25:25.666Z,5.55
2022-10-26T17:27:53.870Z,4.47
2022-10-26T17:30:22.014Z,6.32
2022-10-26T17:32:50.275Z,4.97
2022-10-26T17:35:20.004Z,5.18
2022-10-26T17:37:48.476Z,6.57
2022-10-26T17:40:18.493Z,4.85
2022-10-26T17:42:46.742Z,5.88
2022-10-26T17:45:14.844Z,5.82
2022-10-26T17:47:42.989Z,13.45
2022-10-26T17:50:11.429Z,11.20
2022-10-26T17:52:39.606Z,4.82
2022-10-26T17:55:08.076Z,5.05
2022-10-26T17:57:37.676Z,4.45
2022-10-26T18:00:06.544Z,4.03
2022-10-26T18:02:37.545Z,4.60
2022-10-26T18:05:07.599Z,5.20
2022-10-26T18:07:36.107Z,4.07
2022-10-26T18:10:14.002Z,4.47
2022-10-26T18:12:54.297Z,6.03
2022-10-26T18:15:23.997Z,5.30
2022-10-26T18:17:56.749Z,4.80
2022-10-26T18:20:27.965Z,3.90
2022-10-26T18:22:56.895Z,5.05
2022-10-26T18:25:25.325Z,5.90
2022-10-26T18:27:54.899Z,6.78
2022-10-26T18:30:23.343Z,4.53
2022-10-26T18:32:51.935Z,4.47
2022-10-26T18:35:20.825Z,3.85
2022-10-26T18:37:49.357Z,3.95
2022-10-26T18:40:18.013Z,7.20
2022-10-26T18:42:46.185Z,5.00
2022-10-26T18:45:15.802Z,4.88
2022-10-26T18:47:44.013Z,4.15
2022-10-26T18:50:12.205Z,4.00
2022-10-26T18:52:40.326Z,3.95
2022-10-26T18:55:09.839Z,3.60
2022-10-26T18:57:37.978Z,4.60
2022-10-26T19:00:07.230Z,5.03
2022-10-26T19:02:36.850Z,7.80
2022-10-26T19:05:05.397Z,4.55
2022-10-26T19:07:33.585Z,4.88
2022-10-26T19:10:01.745Z,8.15
2022-10-26T19:12:29.876Z,5.78
2022-10-26T19:14:58.096Z,5.05
2022-10-26T19:17:26.253Z,4.80
2022-10-26T19:19:55.835Z,8.23
2022-10-26T19:22:24.062Z,6.60
2022-10-26T19:24:52.213Z,6.15
2022-10-26T19:27:20.451Z,4.65
2022-10-26T19:29:48.556Z,7.68
2022-10-26T19:32:16.655Z,8.13
2022-10-26T19:34:44.814Z,5.50
2022-10-26T19:37:14.386Z,4.65
2022-10-26T19:39:43.480Z,4.40
2022-10-26T19:42:11.651Z,3.67
2022-10-26T19:44:39.777Z,5.22
2022-10-26T19:47:08.243Z,4.45
2022-10-26T19:49:36.450Z,4.13
2022-10-26T19:52:04.813Z,4.38
2022-10-26T19:54:34.396Z,4.55
2022-10-26T19:57:02.572Z,4.60
2022-10-26T19:59:30.685Z,4.40
2022-10-26T20:02:00.414Z,5.75
2022-10-26T20:04:28.648Z,5.43
2022-10-26T20:06:56.761Z,5.05
2022-10-26T20:09:24.929Z,5.30
2022-10-26T20:11:54.436Z,6.05
2022-10-26T20:14:22.618Z,4.47
2022-10-26T20:16:55.850Z,5.45
2022-10-26T20:19:24.019Z,5.53
2022-10-26T20:21:52.137Z,4.93
2022-10-26T20:24:20.234Z,5.00
2022-10-26T20:26:48.392Z,5.18
2022-10-26T20:29:17.981Z,4.95
2022-10-26T20:31:46.075Z,5.68
2022-10-26T20:34:14.189Z,8.05
2022-10-26T20:36:42.295Z,5.15
2022-10-26T20:39:11.201Z,5.07
2022-10-26T20:41:43.341Z,7.38
2022-10-26T20:44:21.866Z,5.63
2022-10-26T20:46:50.643Z,5.10
2022-10-26T20:49:19.340Z,5.97
2022-10-26T20:52:15.701Z,6.18
2022-10-26T20:54:45.786Z,5.43
2022-10-26T20:57:18.040Z,5.35
2022-10-26T20:59:50.945Z,5.95
2022-10-26T21:02:19.477Z,5.47
2022-10-26T21:04:47.557Z,5.85
2022-10-26T21:07:15.723Z,5.82
2022-10-26T21:09:44.005Z,5.25
2022-10-26T21:12:12.612Z,23.65
2022-10-26T21:14:41.034Z,7.45
2022-10-26T21:17:11.296Z,5.97
2022-10-26T21:19:39.416Z,5.18
2022-10-26T21:22:07.507Z,5.22
2022-10-26T21:27:08.981Z,4.60
2022-10-26T21:29:37.165Z,4.95
2022-10-26T21:32:05.749Z,4.38
2022-10-26T21:34:35.383Z,4.85
2022-10-26T21:37:03.489Z,4.13
2022-10-26T21:39:31.683Z,4.75
2022-10-26T21:41:59.800Z,5.38
2022-10-26T21:44:43.291Z,5.25
2022-10-26T21:47:12.685Z,5.20
2022-10-26T21:52:15.375Z,4.75
2022-10-26T21:54:43.484Z,5.10
2022-10-26T21:57:11.607Z,4.47
2022-10-26T21:59:39.905Z,4.70
2022-10-26T22:02:08.210Z,4.13
2022-10-26T22:04:36.428Z,4.95
2022-10-26T22:07:05.944Z,5.18
2022-10-26T22:09:40.642Z,4.80
2022-10-26T22:12:17.872Z,4.93
2022-10-26T22:17:19.013Z,4.63
2022-10-26T22:19:47.176Z,4.30
2022-10-26T22:22:16.667Z,4.85
2022-10-26T22:24:44.892Z,6.72
2022-10-26T22:27:13.012Z,7.03
2022-10-26T22:29:41.116Z,5.35
2022-10-26T22:32:09.297Z,4.97
2022-10-26T22:34:37.465Z,5.00
2022-10-26T22:37:05.636Z,4.30
2022-10-26T22:39:35.173Z,4.45
2022-10-26T22:42:03.296Z,3.72
2022-10-26T22:44:31.564Z,4.53
2022-10-26T22:47:00.565Z,4.60
2022-10-26T22:49:28.760Z,4.22
2022-10-26T22:51:56.873Z,5.55
2022-10-26T22:54:24.982Z,4.47
2022-10-26T22:56:54.524Z,4.77
2022-10-26T22:59:22.602Z,4.47
2022-10-26T23:01:50.893Z,4.35
2022-10-26T23:04:19.141Z,4.43
2022-10-26T23:06:47.227Z,3.77
2022-10-26T23:09:15.361Z,4.50
2022-10-26T23:11:43.481Z,4.78
2022-10-26T23:14:13.212Z,4.25
2022-10-26T23:16:41.338Z,4.47
2022-10-26T23:19:10.189Z,4.07
2022-10-26T23:21:38.331Z,4.60
2022-10-26T23:24:06.962Z,4.57
2022-10-26T23:26:35.227Z,4.90
2022-10-26T23:29:03.316Z,4.80
2022-10-26T23:31:32.850Z,4.25
2022-10-26T23:34:00.972Z,5.20
2022-10-26T23:36:29.228Z,4.67
2022-10-26T23:38:58.010Z,4.75
2022-10-26T23:41:26.214Z,5.22
2022-10-26T23:43:54.337Z,4.97
2022-10-26T23:46:22.665Z,5.25
2022-10-26T23:48:52.234Z,5.53
2022-10-26T23:51:20.429Z,5.30
2022-10-26T23:53:48.578Z,6.10
2022-10-26T23:56:16.691Z,4.90
2022-10-26T23:58:44.811Z,5.35
